createdAt,value
2019-05-14T00:03:54.617Z,2.73
2019-05-14T00:08:57.117Z,2.43
2019-05-14T00:14:01.296Z,2.20
2019-05-14T00:19:03.989Z,2.00
2019-05-14T00:24:06.420Z,2.20
2019-05-14T00:29:08.467Z,2.20
2019-05-14T00:34:11.290Z,2.27
2019-05-14T00:39:13.245Z,2.00
2019-05-14T00:44:15.220Z,2.10
2019-05-14T00:49:17.188Z,1.67
2019-05-14T00:54:21.422Z,1.60
2019-05-14T00:59:23.183Z,1.50
2019-05-14T01:04:25.126Z,1.63
2019-05-14T01:09:27.622Z,1.53
2019-05-14T01:14:31.752Z,1.83
2019-05-14T01:19:33.873Z,1.87
2019-05-14T01:24:36.432Z,1.40
2019-05-14T01:29:38.951Z,1.30
2019-05-14T01:34:42.005Z,1.57
2019-05-14T01:39:44.399Z,1.53
2019-05-14T01:44:46.485Z,1.80
2019-05-14T01:49:48.694Z,2.20
2019-05-14T01:54:51.565Z,2.20
2019-05-14T01:59:54.489Z,2.07
2019-05-14T02:04:56.455Z,2.27
2019-05-14T02:09:58.520Z,2.10
2019-05-14T02:15:02.023Z,2.63
2019-05-14T02:20:05.868Z,2.17
2019-05-14T02:25:08.428Z,2.43
2019-05-14T02:30:11.263Z,1.80
2019-05-14T02:35:13.653Z,2.40
2019-05-14T02:40:16.122Z,1.80
2019-05-14T02:45:19.906Z,2.13
2019-05-14T02:50:22.493Z,2.50
2019-05-14T02:55:24.309Z,2.10
2019-05-14T03:00:29.811Z,2.03
2019-05-14T03:05:30.699Z,1.70
2019-05-14T03:10:32.824Z,2.00
2019-05-14T03:15:35.179Z,1.70
2019-05-14T03:20:39.270Z,1.90
2019-05-14T03:25:41.408Z,2.37
2019-05-14T03:30:43.873Z,1.90
2019-05-14T03:35:56.300Z,1.93
2019-05-14T03:40:50.478Z,2.13
2019-05-14T03:45:52.522Z,2.10
2019-05-14T03:50:54.626Z,2.17
2019-05-14T03:55:59.704Z,2.50
2019-05-14T04:01:01.769Z,2.20
2019-05-14T04:06:05.204Z,2.97
2019-05-14T04:11:09.638Z,2.67
2019-05-14T04:16:13.375Z,2.43
2019-05-14T04:21:20.495Z,2.60
2019-05-14T04:26:21.421Z,2.63
2019-05-14T04:31:24.900Z,2.80
2019-05-14T04:36:29.569Z,3.10
2019-05-14T04:41:30.958Z,2.57
2019-05-14T04:46:33.012Z,2.93
2019-05-14T04:51:35.126Z,2.80
2019-05-14T04:56:39.998Z,3.00
2019-05-14T05:02:01.469Z,2.70
2019-05-14T05:07:03.314Z,2.20
2019-05-14T05:12:05.220Z,2.70
2019-05-14T05:17:09.212Z,2.57
2019-05-14T05:22:11.984Z,2.53
2019-05-14T05:27:13.881Z,2.90
2019-05-14T05:32:19.198Z,2.80
2019-05-14T05:37:20.968Z,3.80
2019-05-14T05:42:22.837Z,2.67
2019-05-14T05:47:24.785Z,3.60
2019-05-14T05:52:28.247Z,2.87
2019-05-14T05:57:30.439Z,3.10
2019-05-14T06:02:33.053Z,2.97
2019-05-14T06:07:36.179Z,3.00
2019-05-14T06:12:38.763Z,2.33
2019-05-14T06:17:41.380Z,2.80
2019-05-14T06:22:43.254Z,2.57
2019-05-14T06:27:45.248Z,2.53
2019-05-14T06:32:48.716Z,2.57
2019-05-14T06:37:51.565Z,2.80
2019-05-14T06:42:53.971Z,2.80
2019-05-14T06:47:56.051Z,3.40
2019-05-14T06:52:58.356Z,2.17
2019-05-14T06:58:01.512Z,2.43
2019-05-14T07:03:04.811Z,3.27
2019-05-14T07:08:08.933Z,2.40
2019-05-14T07:13:11.143Z,2.40
2019-05-14T07:18:13.849Z,2.50
2019-05-14T07:23:19.210Z,2.40
2019-05-14T07:28:19.824Z,2.20
2019-05-14T07:33:25.307Z,2.27
2019-05-14T07:38:28.393Z,2.40
2019-05-14T07:43:30.693Z,2.27
2019-05-14T07:48:32.577Z,2.60
2019-05-14T07:53:39.047Z,1.60
2019-05-14T07:58:39.344Z,2.20
2019-05-14T08:03:41.166Z,1.60
2019-05-14T08:08:43.376Z,1.90
2019-05-14T08:13:45.791Z,2.37
2019-05-14T08:18:48.833Z,1.80
2019-05-14T08:23:51.025Z,1.70
2019-05-14T08:28:53.545Z,1.80
2019-05-14T08:33:55.940Z,2.47
2019-05-14T08:38:58.516Z,2.70
2019-05-14T08:44:00.818Z,2.23
2019-05-14T08:49:02.862Z,1.70
2019-05-14T08:54:05.270Z,2.20
2019-05-14T08:59:08.667Z,1.83
2019-05-14T09:04:10.919Z,2.27
2019-05-14T09:09:13.585Z,1.33
2019-05-14T09:14:18.702Z,1.50
2019-05-14T09:19:20.537Z,1.50
2019-05-14T09:24:22.472Z,1.57
2019-05-14T09:29:26.095Z,1.30
2019-05-14T09:34:29.116Z,1.30
2019-05-14T09:39:31.168Z,1.40
2019-05-14T09:44:33.361Z,1.83
2019-05-14T09:49:35.472Z,1.73
2019-05-14T09:54:41.422Z,1.80
2019-05-14T09:59:42.090Z,2.40
2019-05-14T10:04:44.891Z,1.70
2019-05-14T10:09:49.070Z,1.30
2019-05-14T10:14:50.886Z,1.93
2019-05-14T10:19:53.124Z,1.80
2019-05-14T10:24:58.126Z,1.70
2019-05-14T10:30:00.008Z,1.40
2019-05-14T10:35:02.186Z,1.50
2019-05-14T10:40:05.173Z,1.60
2019-05-14T10:45:12.394Z,3.10
2019-05-14T10:50:13.803Z,1.53
2019-05-14T10:55:18.408Z,1.47
2019-05-14T11:00:20.780Z,1.63
2019-05-14T11:05:22.720Z,1.70
2019-05-14T11:10:24.584Z,1.60
2019-05-14T11:15:28.518Z,1.50
2019-05-14T11:20:31.297Z,2.47
2019-05-14T11:25:33.864Z,1.93
2019-05-14T11:30:36.187Z,1.50
2019-05-14T11:35:39.424Z,1.87
2019-05-14T11:40:41.692Z,1.77
2019-05-14T11:45:44.150Z,1.80
2019-05-14T11:50:48.888Z,1.80
2019-05-14T11:55:52.179Z,1.97
2019-05-14T12:00:54.577Z,1.80
2019-05-14T12:05:58.583Z,1.53
2019-05-14T12:11:01.601Z,1.40
2019-05-14T12:16:04.083Z,1.50
2019-05-14T12:21:08.964Z,1.60
2019-05-14T12:26:10.384Z,2.20
2019-05-14T12:31:12.229Z,1.50
2019-05-14T12:36:14.303Z,1.90
2019-05-14T12:41:19.467Z,1.50
2019-05-14T12:46:20.683Z,1.60
2019-05-14T12:51:23.193Z,2.10
2019-05-14T12:56:25.149Z,1.40
2019-05-14T13:01:27.473Z,1.50
2019-05-14T13:06:29.584Z,1.30
2019-05-14T13:11:31.685Z,1.53
2019-05-14T13:16:33.897Z,2.30
2019-05-14T13:21:38.969Z,1.33
2019-05-14T13:26:42.462Z,1.33
2019-05-14T13:31:44.829Z,1.30
2019-05-14T13:36:48.816Z,1.40
2019-05-14T13:41:51.206Z,1.50
2019-05-14T13:46:53.631Z,1.33
2019-05-14T13:51:55.858Z,1.40
2019-05-14T13:56:58.666Z,1.50
2019-05-14T14:02:01.243Z,1.43
2019-05-14T14:07:03.681Z,1.70
2019-05-14T14:12:08.090Z,1.40
2019-05-14T14:17:10.414Z,1.20
2019-05-14T14:22:13.062Z,1.30
2019-05-14T14:27:15.001Z,1.30
2019-05-14T14:32:18.852Z,1.70
2019-05-14T14:37:21.844Z,1.50
2019-05-14T14:42:24.232Z,1.40
2019-05-14T14:47:26.121Z,1.30
2019-05-14T14:52:29.155Z,1.60
2019-05-14T14:57:31.974Z,1.67
2019-05-14T15:02:33.908Z,1.63
2019-05-14T15:07:35.765Z,1.20
2019-05-14T15:12:39.825Z,1.43
2019-05-14T15:17:41.513Z,1.40
2019-05-14T15:22:44.599Z,1.50
2019-05-14T15:27:49.186Z,1.37
2019-05-14T15:32:52.325Z,1.37
2019-05-14T15:37:54.827Z,1.40
2019-05-14T15:42:58.990Z,3.17
2019-05-14T15:48:03.996Z,1.50
2019-05-14T15:53:05.600Z,1.80
2019-05-14T15:58:08.717Z,1.50
2019-05-14T16:03:11.212Z,1.70
2019-05-14T16:08:13.047Z,1.40
2019-05-14T16:13:15.169Z,1.17
2019-05-14T16:18:19.756Z,1.57
2019-05-14T16:23:20.878Z,1.20
2019-05-14T16:28:23.111Z,1.30
2019-05-14T16:33:25.341Z,1.30
2019-05-14T16:38:28.527Z,1.40
2019-05-14T16:43:32.553Z,1.30
2019-05-14T16:48:34.788Z,1.37
2019-05-14T16:53:38.004Z,1.30
2019-05-14T16:58:41.289Z,1.40
2019-05-14T17:03:43.232Z,2.50
2019-05-14T17:08:45.227Z,1.53
2019-05-14T17:13:48.861Z,1.33
2019-05-14T17:18:51.501Z,1.30
2019-05-14T17:23:53.948Z,1.43
2019-05-14T17:28:56.408Z,1.60
2019-05-14T17:33:59.665Z,1.37
2019-05-14T17:39:01.715Z,1.40
2019-05-14T17:44:05.535Z,1.60
2019-05-14T17:49:07.480Z,1.60
2019-05-14T17:54:09.550Z,1.50
2019-05-14T17:59:13.732Z,1.37
2019-05-14T18:04:18.356Z,1.70
2019-05-14T18:09:20.637Z,1.80
2019-05-14T18:14:22.597Z,1.60
2019-05-14T18:19:25.496Z,1.20
2019-05-14T18:24:28.547Z,1.30
2019-05-14T18:29:30.753Z,1.30
2019-05-14T18:34:33.277Z,1.50
2019-05-14T18:39:36.140Z,1.20
2019-05-14T18:44:39.094Z,1.10
2019-05-14T18:49:41.681Z,1.00
2019-05-14T18:54:48.165Z,1.30
2019-05-14T18:59:52.392Z,1.50
2019-05-14T19:04:54.567Z,1.10
2019-05-14T19:09:58.641Z,1.60
2019-05-14T19:15:01.032Z,1.50
2019-05-14T19:20:03.287Z,1.60
2019-05-14T19:25:08.033Z,1.20
2019-05-14T19:30:10.431Z,1.27
2019-05-14T19:35:14.812Z,1.30
2019-05-14T19:40:18.850Z,1.57
2019-05-14T19:45:20.962Z,1.50
2019-05-14T19:50:22.981Z,1.60
2019-05-14T19:55:25.145Z,2.00
2019-05-14T20:00:28.871Z,1.10
2019-05-14T20:05:31.027Z,1.30
2019-05-14T20:10:32.961Z,1.30
2019-05-14T20:15:35.277Z,1.53
2019-05-14T20:20:38.348Z,2.10
2019-05-14T20:25:40.337Z,2.23
2019-05-14T20:30:42.276Z,1.80
2019-05-14T20:35:44.273Z,1.80
2019-05-14T20:40:48.689Z,2.30
2019-05-14T20:45:52.182Z,2.07
2019-05-14T20:50:54.293Z,1.93
2019-05-14T20:55:58.466Z,3.23
2019-05-14T21:01:00.147Z,2.10
2019-05-14T21:06:02.698Z,2.00
2019-05-14T21:11:04.674Z,1.90
2019-05-14T21:16:08.411Z,1.73
2019-05-14T21:21:11.258Z,2.00
2019-05-14T21:26:13.281Z,1.97
2019-05-14T21:31:15.248Z,1.60
2019-05-14T21:36:19.401Z,1.70
2019-05-14T21:41:21.407Z,2.10
2019-05-14T21:46:23.545Z,1.70
2019-05-14T21:51:28.230Z,1.97
2019-05-14T21:56:30.574Z,1.43
2019-05-14T22:01:32.953Z,1.60
2019-05-14T22:06:34.819Z,1.40
2019-05-14T22:11:39.094Z,1.40
2019-05-14T22:16:40.710Z,1.90
2019-05-14T22:21:42.858Z,1.37
2019-05-14T22:26:47.832Z,1.57
2019-05-14T22:31:49.836Z,1.80
2019-05-14T22:36:52.145Z,1.87
2019-05-14T22:41:54.716Z,1.50
2019-05-14T22:46:58.765Z,1.50
2019-05-14T22:52:00.899Z,2.00
2019-05-14T22:57:03.144Z,1.47
2019-05-14T23:02:08.386Z,1.40
2019-05-14T23:07:09.668Z,1.60
2019-05-14T23:12:12.249Z,1.47
2019-05-14T23:17:14.836Z,1.43
2019-05-14T23:22:18.583Z,1.57
2019-05-14T23:27:20.559Z,1.60
2019-05-14T23:32:23.154Z,1.57
2019-05-14T23:37:28.953Z,1.60
2019-05-14T23:42:30.288Z,1.70
2019-05-14T23:47:32.467Z,1.50
2019-05-14T23:52:34.293Z,1.60
2019-05-14T23:57:36.225Z,1.40
